createdAt,value
2017-07-15T00:00:35.932Z,99.99
2017-07-15T00:01:36.866Z,99.99
2017-07-15T00:02:37.547Z,99.99
2017-07-15T00:03:38.234Z,99.99
2017-07-15T00:04:38.925Z,99.99
2017-07-15T00:05:39.614Z,99.99
2017-07-15T00:06:40.551Z,99.99
2017-07-15T00:07:41.248Z,99.99
2017-07-15T00:08:41.930Z,99.62
2017-07-15T00:09:42.615Z,99.62
2017-07-15T00:10:43.305Z,99.99
2017-07-15T00:11:44.242Z,99.99
2017-07-15T00:12:44.930Z,99.52
2017-07-15T00:13:45.631Z,99.52
2017-07-15T00:14:46.321Z,99.99
2017-07-15T00:15:47.005Z,99.04
2017-07-15T00:16:47.949Z,99.24
2017-07-15T00:17:48.633Z,99.24
2017-07-15T00:18:49.315Z,99.43
2017-07-15T00:19:50.000Z,99.52
2017-07-15T00:20:50.686Z,99.99
2017-07-15T00:21:51.375Z,99.81
2017-07-15T00:22:52.057Z,99.24
2017-07-15T00:23:52.739Z,99.99
2017-07-15T00:24:53.421Z,99.99
2017-07-15T00:25:54.107Z,99.99
2017-07-15T00:26:55.043Z,99.81
2017-07-15T00:27:55.729Z,99.99
2017-07-15T00:28:56.423Z,99.99
2017-07-15T00:29:57.109Z,99.99
2017-07-15T00:30:57.797Z,99.90
2017-07-15T00:31:58.483Z,99.99
2017-07-15T00:32:59.169Z,99.43
2017-07-15T00:33:59.857Z,99.99
2017-07-15T00:35:00.550Z,99.99
2017-07-15T00:36:01.232Z,99.99
2017-07-15T00:37:02.166Z,99.90
2017-07-15T00:38:02.848Z,99.71
2017-07-15T00:39:03.530Z,99.43
2017-07-15T00:40:04.220Z,99.99
2017-07-15T00:41:04.906Z,99.99
2017-07-15T00:42:05.843Z,99.99
2017-07-15T00:43:06.529Z,99.99
2017-07-15T00:44:07.219Z,99.99
2017-07-15T00:45:07.907Z,99.99
2017-07-15T00:46:08.587Z,99.99
2017-07-15T00:47:09.523Z,99.62
2017-07-15T00:48:10.207Z,99.99
2017-07-15T00:49:10.891Z,99.24
2017-07-15T00:50:11.579Z,99.99
2017-07-15T00:51:12.265Z,99.52
2017-07-15T00:52:13.204Z,99.99
2017-07-15T00:53:13.891Z,99.43
2017-07-15T00:54:14.580Z,99.99
2017-07-15T00:55:15.273Z,99.99
2017-07-15T00:56:15.952Z,99.81
2017-07-15T00:57:16.896Z,99.99
2017-07-15T00:58:17.581Z,99.52
2017-07-15T00:59:18.269Z,99.99
2017-07-15T01:00:18.955Z,99.99
2017-07-15T01:01:19.639Z,99.99
2017-07-15T01:02:20.581Z,99.99
2017-07-15T01:03:21.270Z,99.99
2017-07-15T01:04:21.954Z,99.99
2017-07-15T01:05:22.642Z,99.99
2017-07-15T01:06:23.332Z,99.62
2017-07-15T01:07:24.273Z,99.99
2017-07-15T01:08:24.952Z,99.99
2017-07-15T01:09:25.636Z,99.99
2017-07-15T01:10:26.323Z,99.90
2017-07-15T01:11:27.008Z,99.99
2017-07-15T01:12:27.946Z,99.95
2017-07-15T01:13:28.631Z,99.99
2017-07-15T01:14:29.322Z,99.99
2017-07-15T01:15:30.003Z,99.99
2017-07-15T01:16:30.687Z,99.95
2017-07-15T01:17:31.624Z,99.99
2017-07-15T01:18:32.311Z,99.99
2017-07-15T01:19:32.996Z,99.99
2017-07-15T01:20:33.679Z,99.99
2017-07-15T01:21:34.360Z,99.85
2017-07-15T01:22:35.297Z,99.99
2017-07-15T01:23:35.986Z,99.90
2017-07-15T01:24:36.672Z,99.99
2017-07-15T01:25:37.355Z,99.99
2017-07-15T01:26:38.037Z,99.99
2017-07-15T01:27:38.973Z,99.99
2017-07-15T01:28:39.671Z,99.99
2017-07-15T01:29:40.360Z,99.99
2017-07-15T01:30:41.049Z,99.99
2017-07-15T01:31:41.735Z,99.99
2017-07-15T01:32:42.671Z,99.81
2017-07-15T01:33:43.352Z,99.99
2017-07-15T01:34:44.042Z,99.99
2017-07-15T01:35:44.728Z,99.99
2017-07-15T01:36:45.420Z,99.99
2017-07-15T01:37:46.361Z,99.99
2017-07-15T01:38:47.049Z,99.99
2017-07-15T01:39:47.744Z,99.95
2017-07-15T01:40:48.427Z,99.99
2017-07-15T01:41:49.118Z,99.95
2017-07-15T01:42:50.056Z,99.99
2017-07-15T01:43:50.741Z,99.99
2017-07-15T01:44:51.429Z,99.99
2017-07-15T01:45:52.115Z,99.95
2017-07-15T01:46:52.799Z,99.99
2017-07-15T01:47:53.736Z,99.99
2017-07-15T01:48:54.423Z,99.99
2017-07-15T01:49:55.117Z,99.99
2017-07-15T01:50:55.806Z,99.99
2017-07-15T01:51:56.493Z,99.99
2017-07-15T01:52:57.433Z,99.99
2017-07-15T01:53:58.123Z,99.99
2017-07-15T01:54:58.812Z,99.99
2017-07-15T01:55:59.503Z,99.52
2017-07-15T01:57:00.189Z,99.52
2017-07-15T01:58:00.881Z,99.99
2017-07-15T01:59:01.563Z,99.99
2017-07-15T02:00:02.249Z,99.99
2017-07-15T02:01:02.951Z,99.99
2017-07-15T02:02:03.637Z,99.99
2017-07-15T02:03:04.325Z,99.99
2017-07-15T02:04:05.010Z,99.99
2017-07-15T02:05:05.694Z,99.99
2017-07-15T02:06:06.385Z,99.95
2017-07-15T02:07:07.074Z,99.99
2017-07-15T02:08:08.016Z,99.99
2017-07-15T02:09:08.701Z,99.99
2017-07-15T02:10:09.389Z,99.99
2017-07-15T02:11:10.082Z,99.99
2017-07-15T02:12:10.765Z,99.99
2017-07-15T02:13:11.703Z,99.99
2017-07-15T02:14:12.389Z,99.99
2017-07-15T02:15:13.086Z,99.99
2017-07-15T02:16:13.768Z,99.99
2017-07-15T02:17:14.454Z,99.99
2017-07-15T02:18:15.392Z,99.99
2017-07-15T02:19:16.074Z,99.99
2017-07-15T02:20:16.760Z,99.76
2017-07-15T02:21:17.450Z,99.99
2017-07-15T02:22:18.135Z,99.99
2017-07-15T02:23:19.072Z,99.99
2017-07-15T02:24:19.758Z,99.99
2017-07-15T02:25:20.447Z,99.99
2017-07-15T02:26:21.137Z,99.99
2017-07-15T02:27:21.824Z,99.99
2017-07-15T02:28:22.763Z,99.99
2017-07-15T02:29:23.454Z,99.99
2017-07-15T02:30:24.150Z,99.99
2017-07-15T02:31:24.840Z,99.99
2017-07-15T02:32:25.524Z,99.99
2017-07-15T02:33:26.463Z,99.99
2017-07-15T02:34:27.147Z,99.95
2017-07-15T02:35:27.831Z,99.99
2017-07-15T02:36:28.517Z,99.99
2017-07-15T02:37:29.199Z,99.99
2017-07-15T02:38:30.128Z,99.99
2017-07-15T02:39:30.816Z,99.99
2017-07-15T02:40:31.505Z,99.99
2017-07-15T02:41:32.190Z,99.99
2017-07-15T02:42:32.875Z,99.99
2017-07-15T02:43:33.814Z,99.99
2017-07-15T02:44:34.503Z,99.99
2017-07-15T02:45:35.195Z,99.99
2017-07-15T02:46:35.883Z,99.99
2017-07-15T02:47:36.569Z,99.99
2017-07-15T02:48:37.505Z,99.76
2017-07-15T02:49:38.193Z,99.99
2017-07-15T02:50:38.882Z,99.99
2017-07-15T02:51:39.568Z,99.99
2017-07-15T02:52:40.252Z,99.99
2017-07-15T02:53:41.184Z,99.66
2017-07-15T02:54:41.879Z,99.99
2017-07-15T02:55:42.575Z,99.99
2017-07-15T02:56:43.260Z,99.99
2017-07-15T02:57:43.948Z,99.80
2017-07-15T02:58:44.885Z,99.99
2017-07-15T02:59:45.573Z,99.99
2017-07-15T03:00:46.258Z,99.99
2017-07-15T03:01:46.945Z,99.99
2017-07-15T03:02:47.629Z,99.99
2017-07-15T03:03:48.572Z,99.80
2017-07-15T03:04:49.259Z,99.99
2017-07-15T03:05:49.946Z,99.99
2017-07-15T03:06:50.641Z,99.95
2017-07-15T03:07:51.327Z,99.90
2017-07-15T03:08:52.320Z,99.99
2017-07-15T03:09:53.007Z,99.95
2017-07-15T03:10:53.693Z,99.76
2017-07-15T03:11:54.383Z,99.71
2017-07-15T03:12:55.069Z,99.99
2017-07-15T03:13:56.003Z,99.99
2017-07-15T03:14:56.690Z,99.71
2017-07-15T03:15:57.377Z,99.80
2017-07-15T03:16:58.067Z,99.99
2017-07-15T03:17:58.756Z,99.90
2017-07-15T03:18:59.690Z,99.99
2017-07-15T03:20:00.379Z,99.90
2017-07-15T03:21:01.067Z,99.99
2017-07-15T03:22:01.753Z,99.99
2017-07-15T03:23:02.436Z,99.99
2017-07-15T03:24:03.374Z,99.99
2017-07-15T03:25:04.061Z,99.99
2017-07-15T03:26:04.744Z,99.99
2017-07-15T03:27:05.432Z,99.99
2017-07-15T03:28:06.119Z,99.99
2017-07-15T03:29:07.057Z,99.99
2017-07-15T03:30:07.742Z,99.99
2017-07-15T03:31:08.432Z,99.99
2017-07-15T03:32:09.120Z,99.99
2017-07-15T03:33:09.809Z,99.99
2017-07-15T03:34:10.498Z,99.99
2017-07-15T03:35:11.186Z,99.99
2017-07-15T03:36:11.877Z,99.95
2017-07-15T03:37:12.565Z,99.99
2017-07-15T03:38:13.254Z,99.85
2017-07-15T03:39:13.941Z,99.99
2017-07-15T03:40:14.632Z,99.99
2017-07-15T03:41:15.323Z,99.99
2017-07-15T03:42:16.008Z,99.85
2017-07-15T03:43:16.696Z,99.99
2017-07-15T03:44:17.642Z,99.99
2017-07-15T03:45:18.331Z,99.99
2017-07-15T03:46:19.021Z,99.99
2017-07-15T03:47:19.710Z,99.99
2017-07-15T03:48:20.409Z,99.99
2017-07-15T03:49:21.352Z,99.99
2017-07-15T03:50:22.037Z,99.99
2017-07-15T03:51:22.722Z,99.99
2017-07-15T03:52:23.414Z,99.99
2017-07-15T03:53:24.104Z,99.99
2017-07-15T03:54:25.046Z,99.99
2017-07-15T03:55:25.741Z,99.99
2017-07-15T03:56:26.431Z,99.99
2017-07-15T03:57:27.121Z,99.99
2017-07-15T03:58:27.814Z,99.99
2017-07-15T03:59:28.757Z,99.99
2017-07-15T04:00:29.448Z,99.99
2017-07-15T04:01:30.138Z,99.99
2017-07-15T04:02:30.824Z,99.99
2017-07-15T04:03:31.511Z,99.99
2017-07-15T04:04:32.455Z,99.99
2017-07-15T04:05:33.146Z,99.99
2017-07-15T04:06:33.840Z,99.99
2017-07-15T04:07:34.525Z,99.99
2017-07-15T04:08:35.216Z,99.99
2017-07-15T04:09:36.158Z,99.99
2017-07-15T04:10:36.844Z,99.99
2017-07-15T04:11:37.541Z,99.99
2017-07-15T04:12:38.228Z,99.99
2017-07-15T04:13:38.916Z,99.99
2017-07-15T04:14:39.852Z,99.76
2017-07-15T04:15:40.545Z,99.99
2017-07-15T04:16:41.231Z,99.99
2017-07-15T04:17:41.927Z,99.99
2017-07-15T04:18:42.611Z,99.99
2017-07-15T04:19:43.551Z,99.99
2017-07-15T04:20:44.240Z,99.99
2017-07-15T04:21:44.928Z,99.99
2017-07-15T04:22:45.616Z,99.99
2017-07-15T04:23:46.306Z,99.99
2017-07-15T04:24:47.244Z,99.99
2017-07-15T04:25:47.950Z,99.99
2017-07-15T04:26:48.865Z,99.99
2017-07-15T04:27:49.553Z,99.99
2017-07-15T04:28:50.244Z,99.99
2017-07-15T04:29:51.184Z,99.99
2017-07-15T04:30:51.873Z,99.99
2017-07-15T04:31:52.562Z,99.99
2017-07-15T04:32:53.246Z,99.99
2017-07-15T04:33:53.933Z,99.99
2017-07-15T04:34:54.872Z,99.99
2017-07-15T04:35:55.564Z,99.99
2017-07-15T04:36:56.256Z,99.99
2017-07-15T04:37:56.946Z,99.99
2017-07-15T04:38:57.635Z,99.99
2017-07-15T04:39:58.576Z,99.99
2017-07-15T04:40:59.262Z,99.99
2017-07-15T04:41:59.957Z,99.99
2017-07-15T04:43:00.657Z,99.99
2017-07-15T04:44:01.349Z,99.99
2017-07-15T04:45:02.293Z,99.99
2017-07-15T04:46:02.984Z,99.99
2017-07-15T04:47:03.673Z,99.99
2017-07-15T04:48:04.369Z,99.99
2017-07-15T04:49:05.065Z,99.99
2017-07-15T04:50:06.014Z,99.99
2017-07-15T04:51:06.702Z,99.99
2017-07-15T04:52:07.393Z,99.99
2017-07-15T04:53:08.087Z,99.99
2017-07-15T04:54:08.781Z,99.99
2017-07-15T04:55:09.723Z,99.99
2017-07-15T04:56:10.414Z,99.99
2017-07-15T04:57:11.107Z,99.99
2017-07-15T04:58:11.794Z,99.99
2017-07-15T04:59:12.489Z,99.99
2017-07-15T05:00:13.428Z,99.99
2017-07-15T05:01:14.127Z,99.99
2017-07-15T05:02:14.821Z,99.90
2017-07-15T05:03:15.514Z,99.99
2017-07-15T05:04:16.208Z,99.99
2017-07-15T05:05:17.149Z,99.99
2017-07-15T05:06:17.840Z,99.99
2017-07-15T05:07:18.530Z,99.99
2017-07-15T05:08:19.218Z,99.99
2017-07-15T05:09:19.909Z,99.99
2017-07-15T05:10:20.851Z,99.99
2017-07-15T05:11:21.540Z,99.99
2017-07-15T05:12:22.232Z,99.80
2017-07-15T05:13:22.918Z,99.99
2017-07-15T05:14:23.609Z,99.99
2017-07-15T05:15:24.549Z,99.99
2017-07-15T05:16:25.239Z,99.99
2017-07-15T05:17:25.936Z,99.99
2017-07-15T05:18:26.622Z,99.99
2017-07-15T05:19:27.310Z,99.99
2017-07-15T05:20:28.248Z,99.99
2017-07-15T05:21:28.949Z,99.99
2017-07-15T05:22:29.630Z,99.99
2017-07-15T05:23:30.324Z,99.99
2017-07-15T05:24:31.020Z,99.99
2017-07-15T05:25:31.961Z,99.99
2017-07-15T05:26:32.649Z,99.99
2017-07-15T05:27:33.338Z,99.99
2017-07-15T05:28:34.031Z,99.99
2017-07-15T05:29:34.724Z,99.99
2017-07-15T05:30:35.664Z,99.99
2017-07-15T05:31:36.354Z,99.99
2017-07-15T05:32:37.043Z,99.99
2017-07-15T05:33:37.732Z,99.99
2017-07-15T05:34:38.424Z,99.99
2017-07-15T05:35:39.364Z,99.99
2017-07-15T05:36:40.051Z,99.99
2017-07-15T05:37:40.738Z,99.99
2017-07-15T05:38:41.425Z,99.99
2017-07-15T05:39:42.114Z,99.99
2017-07-15T05:40:43.057Z,99.99
2017-07-15T05:41:43.745Z,99.99
2017-07-15T05:42:44.431Z,99.99
2017-07-15T05:43:45.125Z,99.99
2017-07-15T05:44:45.814Z,99.99
2017-07-15T05:45:46.774Z,99.99
2017-07-15T05:46:47.440Z,99.99
2017-07-15T05:47:48.127Z,99.99
2017-07-15T05:48:48.816Z,99.99
2017-07-15T05:49:49.506Z,99.99
2017-07-15T05:50:50.449Z,99.99
2017-07-15T05:51:51.140Z,99.99
2017-07-15T05:52:51.838Z,99.99
2017-07-15T05:53:52.528Z,99.99
2017-07-15T05:54:53.219Z,99.99
2017-07-15T05:55:54.163Z,99.99
2017-07-15T05:56:54.867Z,99.99
2017-07-15T05:57:55.576Z,99.99
2017-07-15T05:58:56.268Z,99.99
2017-07-15T05:59:56.965Z,99.99
2017-07-15T06:00:57.908Z,99.99
2017-07-15T06:01:58.599Z,99.95
2017-07-15T06:02:59.288Z,99.99
2017-07-15T06:03:59.974Z,99.99
2017-07-15T06:05:00.675Z,99.99
2017-07-15T06:06:01.618Z,99.66
2017-07-15T06:07:02.308Z,99.99
2017-07-15T06:08:02.996Z,99.76
2017-07-15T06:09:03.687Z,99.99
2017-07-15T06:10:04.379Z,99.99
2017-07-15T06:11:05.322Z,99.99
2017-07-15T06:12:06.012Z,99.99
2017-07-15T06:13:06.705Z,99.76
2017-07-15T06:14:07.399Z,99.99
2017-07-15T06:15:08.090Z,99.99
2017-07-15T06:16:09.033Z,99.99
2017-07-15T06:17:09.721Z,99.99
2017-07-15T06:18:10.409Z,99.99
2017-07-15T06:19:11.101Z,99.99
2017-07-15T06:20:11.792Z,99.24
2017-07-15T06:21:12.735Z,99.81
2017-07-15T06:22:13.431Z,99.62
2017-07-15T06:23:14.124Z,98.75
2017-07-15T06:24:14.826Z,98.38
2017-07-15T06:25:15.520Z,99.24
2017-07-15T06:26:16.465Z,99.62
2017-07-15T06:27:17.161Z,99.24
2017-07-15T06:28:17.852Z,99.62
2017-07-15T06:29:18.549Z,99.14
2017-07-15T06:30:19.234Z,98.18
2017-07-15T06:31:19.924Z,96.94
2017-07-15T06:32:20.614Z,97.13
2017-07-15T06:33:21.310Z,95.51
2017-07-15T06:34:21.998Z,95.79
2017-07-15T06:35:22.687Z,95.41
2017-07-15T06:36:23.378Z,96.18
2017-07-15T06:37:24.069Z,96.27
2017-07-15T06:38:24.768Z,95.98
2017-07-15T06:39:25.459Z,96.27
2017-07-15T06:40:26.150Z,96.18
2017-07-15T06:41:27.099Z,96.27
2017-07-15T06:42:27.790Z,96.18
2017-07-15T06:43:28.481Z,96.66
2017-07-15T06:44:29.173Z,96.56
2017-07-15T06:45:29.865Z,96.84
2017-07-15T06:46:30.816Z,97.04
2017-07-15T06:47:31.508Z,96.80
2017-07-15T06:48:32.201Z,97.13
2017-07-15T06:49:32.894Z,96.99
2017-07-15T06:50:33.593Z,97.66
2017-07-15T06:51:34.531Z,95.17
2017-07-15T06:52:35.223Z,96.13
2017-07-15T06:53:35.917Z,95.27
2017-07-15T06:54:36.603Z,95.07
2017-07-15T06:55:37.293Z,94.12
2017-07-15T06:56:38.236Z,93.74
2017-07-15T06:57:38.929Z,93.16
2017-07-15T06:58:39.625Z,92.11
2017-07-15T06:59:40.315Z,92.69
2017-07-15T07:00:41.006Z,92.78
2017-07-15T07:01:41.949Z,92.21
2017-07-15T07:02:42.647Z,90.67
2017-07-15T07:03:43.338Z,89.62
2017-07-15T07:04:44.030Z,89.72
2017-07-15T07:05:44.721Z,89.86
2017-07-15T07:06:45.664Z,89.91
2017-07-15T07:07:46.355Z,89.95
2017-07-15T07:08:47.052Z,89.00
2017-07-15T07:09:47.748Z,88.71
2017-07-15T07:10:48.442Z,89.09
2017-07-15T07:11:49.384Z,89.67
2017-07-15T07:12:50.076Z,88.81
2017-07-15T07:13:50.769Z,88.76
2017-07-15T07:14:51.458Z,89.62
2017-07-15T07:15:52.151Z,90.30
2017-07-15T07:16:53.092Z,88.67
2017-07-15T07:17:53.787Z,86.90
2017-07-15T07:18:54.486Z,86.66
2017-07-15T07:19:55.177Z,87.66
2017-07-15T07:20:55.882Z,87.37
2017-07-15T07:21:56.823Z,86.32
2017-07-15T07:22:57.517Z,84.41
2017-07-15T07:23:58.207Z,84.22
2017-07-15T07:24:58.899Z,83.31
2017-07-15T07:25:59.591Z,85.03
2017-07-15T07:27:00.531Z,84.84
2017-07-15T07:28:01.227Z,85.32
2017-07-15T07:29:01.916Z,84.17
2017-07-15T07:30:02.629Z,84.41
2017-07-15T07:31:03.321Z,84.65
2017-07-15T07:32:04.295Z,86.18
2017-07-15T07:33:04.964Z,87.08
2017-07-15T07:34:05.661Z,88.13
2017-07-15T07:35:06.344Z,87.08
2017-07-15T07:36:07.036Z,87.66
2017-07-15T07:37:07.982Z,85.75
2017-07-15T07:38:08.674Z,85.36
2017-07-15T07:39:09.366Z,84.22
2017-07-15T07:40:10.057Z,83.60
2017-07-15T07:41:10.751Z,84.41
2017-07-15T07:42:11.691Z,85.46
2017-07-15T07:43:12.392Z,84.31
2017-07-15T07:44:13.081Z,81.92
2017-07-15T07:45:13.774Z,82.11
2017-07-15T07:46:14.466Z,81.82
2017-07-15T07:47:15.410Z,82.87
2017-07-15T07:48:16.102Z,82.49
2017-07-15T07:49:16.793Z,81.54
2017-07-15T07:50:17.484Z,80.67
2017-07-15T07:51:18.178Z,80.38
2017-07-15T07:52:19.121Z,81.15
2017-07-15T07:53:19.816Z,81.05
2017-07-15T07:54:20.514Z,81.63
2017-07-15T07:55:21.214Z,81.63
2017-07-15T07:56:21.906Z,80.58
2017-07-15T07:57:22.850Z,79.57
2017-07-15T07:58:23.555Z,77.75
2017-07-15T07:59:24.252Z,77.80
2017-07-15T08:00:24.949Z,78.66
2017-07-15T08:01:25.638Z,79.47
2017-07-15T08:02:26.580Z,81.38
2017-07-15T08:03:27.281Z,80.24
2017-07-15T08:04:27.972Z,81.10
2017-07-15T08:05:28.669Z,80.90
2017-07-15T08:06:29.366Z,78.42
2017-07-15T08:07:30.057Z,76.79
2017-07-15T08:08:30.752Z,76.21
2017-07-15T08:09:31.449Z,76.35
2017-07-15T08:10:32.153Z,76.60
2017-07-15T08:11:32.844Z,76.12
2017-07-15T08:12:33.790Z,76.54
2017-07-15T08:13:34.483Z,77.46
2017-07-15T08:14:35.170Z,78.17
2017-07-15T08:15:35.869Z,77.40
2017-07-15T08:16:36.572Z,77.26
2017-07-15T08:17:37.523Z,77.88
2017-07-15T08:18:38.208Z,77.46
2017-07-15T08:19:38.911Z,77.97
2017-07-15T08:20:39.604Z,77.50
2017-07-15T08:21:40.294Z,75.87
2017-07-15T08:22:41.235Z,75.68
2017-07-15T08:23:41.929Z,73.57
2017-07-15T08:24:42.621Z,73.91
2017-07-15T08:25:43.312Z,74.40
2017-07-15T08:26:44.004Z,74.97
2017-07-15T08:27:44.947Z,75.73
2017-07-15T08:28:45.648Z,77.31
2017-07-15T08:29:46.344Z,76.31
2017-07-15T08:30:47.037Z,75.73
2017-07-15T08:31:47.728Z,76.31
2017-07-15T08:32:48.670Z,76.12
2017-07-15T08:33:49.366Z,76.35
2017-07-15T08:34:50.067Z,75.68
2017-07-15T08:35:50.767Z,75.96
2017-07-15T08:36:51.459Z,74.82
2017-07-15T08:37:52.398Z,74.82
2017-07-15T08:38:53.093Z,74.43
2017-07-15T08:39:53.786Z,75.77
2017-07-15T08:40:54.478Z,75.87
2017-07-15T08:41:55.165Z,76.64
2017-07-15T08:42:56.112Z,76.35
2017-07-15T08:43:56.807Z,75.23
2017-07-15T08:44:57.501Z,74.66
2017-07-15T08:45:58.204Z,75.90
2017-07-15T08:46:58.905Z,74.95
2017-07-15T08:47:59.849Z,73.70
2017-07-15T08:49:00.539Z,72.45
2017-07-15T08:50:01.236Z,71.31
2017-07-15T08:51:01.933Z,72.55
2017-07-15T08:52:02.626Z,72.88
2017-07-15T08:53:03.576Z,70.19
2017-07-15T08:54:04.271Z,69.42
2017-07-15T08:55:04.971Z,71.44
2017-07-15T08:56:05.669Z,70.57
2017-07-15T08:57:06.365Z,72.11
2017-07-15T08:58:07.315Z,71.37
2017-07-15T08:59:08.008Z,69.81
2017-07-15T09:00:08.699Z,70.19
2017-07-15T09:01:09.399Z,70.38
2017-07-15T09:02:10.088Z,71.05
2017-07-15T09:03:11.028Z,71.05
2017-07-15T09:04:11.728Z,71.37
2017-07-15T09:05:12.419Z,71.09
2017-07-15T09:06:13.116Z,69.71
2017-07-15T09:07:13.816Z,69.56
2017-07-15T09:08:14.750Z,68.98
2017-07-15T09:09:15.447Z,68.40
2017-07-15T09:10:16.158Z,68.69
2017-07-15T09:11:16.858Z,69.17
2017-07-15T09:12:17.555Z,70.13
2017-07-15T09:13:18.498Z,70.03
2017-07-15T09:14:19.189Z,71.37
2017-07-15T09:15:19.888Z,70.23
2017-07-15T09:16:20.585Z,70.23
2017-07-15T09:17:21.283Z,70.90
2017-07-15T09:18:22.223Z,71.09
2017-07-15T09:19:22.916Z,72.14
2017-07-15T09:20:23.613Z,70.99
2017-07-15T09:21:24.318Z,70.61
2017-07-15T09:22:25.011Z,70.23
2017-07-15T09:23:25.956Z,71.09
2017-07-15T09:24:26.652Z,71.76
2017-07-15T09:25:27.349Z,71.19
2017-07-15T09:26:28.051Z,72.05
2017-07-15T09:27:28.745Z,71.19
2017-07-15T09:28:29.681Z,71.19
2017-07-15T09:29:30.377Z,70.13
2017-07-15T09:30:31.067Z,70.23
2017-07-15T09:31:31.759Z,71.37
2017-07-15T09:32:32.466Z,72.43
2017-07-15T09:33:33.412Z,71.22
2017-07-15T09:34:34.103Z,72.53
2017-07-15T09:35:34.795Z,71.66
2017-07-15T09:36:35.491Z,71.89
2017-07-15T09:37:36.180Z,71.41
2017-07-15T09:38:36.871Z,71.41
2017-07-15T09:39:37.578Z,71.41
2017-07-15T09:40:38.272Z,69.68
2017-07-15T09:41:38.970Z,69.78
2017-07-15T09:42:39.663Z,68.15
2017-07-15T09:43:40.610Z,67.67
2017-07-15T09:44:41.302Z,67.76
2017-07-15T09:45:41.994Z,68.73
2017-07-15T09:46:42.686Z,68.53
2017-07-15T09:47:43.387Z,68.91
2017-07-15T09:48:44.331Z,68.15
2017-07-15T09:49:45.024Z,68.50
2017-07-15T09:50:45.723Z,68.69
2017-07-15T09:51:46.418Z,68.69
2017-07-15T09:52:47.124Z,69.46
2017-07-15T09:53:48.075Z,70.42
2017-07-15T09:54:48.768Z,70.61
2017-07-15T09:55:49.467Z,70.90
2017-07-15T09:56:50.159Z,70.80
2017-07-15T09:57:50.851Z,69.46
2017-07-15T09:58:51.548Z,68.98
2017-07-15T09:59:52.243Z,68.30
2017-07-15T10:00:52.936Z,68.69
2017-07-15T10:01:53.655Z,69.30
2017-07-15T10:02:54.346Z,68.53
2017-07-15T10:03:55.302Z,69.11
2017-07-15T10:04:56.005Z,69.20
2017-07-15T10:05:56.705Z,69.87
2017-07-15T10:06:57.410Z,69.78
2017-07-15T10:07:58.106Z,69.62
2017-07-15T10:08:59.055Z,68.85
2017-07-15T10:09:59.745Z,68.47
2017-07-15T10:11:00.437Z,68.37
2017-07-15T10:12:01.135Z,67.61
2017-07-15T10:13:01.829Z,66.64
2017-07-15T10:14:03.086Z,67.35
2017-07-15T10:15:03.779Z,65.43
2017-07-15T10:16:04.471Z,64.28
2017-07-15T10:17:05.166Z,65.33
2017-07-15T10:18:05.856Z,65.75
2017-07-15T10:19:06.807Z,65.46
2017-07-15T10:20:07.501Z,63.54
2017-07-15T10:21:08.203Z,63.22
2017-07-15T10:22:08.901Z,63.86
2017-07-15T10:23:09.595Z,64.28
2017-07-15T10:24:10.539Z,65.17
2017-07-15T10:25:11.236Z,65.27
2017-07-15T10:26:11.930Z,64.98
2017-07-15T10:27:12.626Z,63.28
2017-07-15T10:28:13.322Z,63.76
2017-07-15T10:29:14.268Z,61.04
2017-07-15T10:30:14.968Z,63.28
2017-07-15T10:31:15.665Z,62.32
2017-07-15T10:32:16.362Z,63.95
2017-07-15T10:33:17.056Z,62.71
2017-07-15T10:34:17.998Z,62.32
2017-07-15T10:35:18.699Z,62.38
2017-07-15T10:36:19.391Z,63.06
2017-07-15T10:37:20.091Z,62.58
2017-07-15T10:38:20.791Z,63.15
2017-07-15T10:39:21.744Z,64.79
2017-07-15T10:40:22.434Z,64.22
2017-07-15T10:41:23.129Z,64.89
2017-07-15T10:42:23.838Z,64.89
2017-07-15T10:43:24.533Z,64.79
2017-07-15T10:44:25.484Z,66.04
2017-07-15T10:45:26.185Z,66.84
2017-07-15T10:46:26.889Z,65.46
2017-07-15T10:47:27.590Z,65.69
2017-07-15T10:48:28.289Z,64.79
2017-07-15T10:49:29.246Z,62.61
2017-07-15T10:50:29.942Z,60.11
2017-07-15T10:51:30.634Z,61.04
2017-07-15T10:52:31.336Z,61.07
2017-07-15T10:53:32.033Z,61.26
2017-07-15T10:54:32.983Z,62.23
2017-07-15T10:55:33.679Z,60.49
2017-07-15T10:56:34.378Z,60.11
2017-07-15T10:57:35.075Z,59.82
2017-07-15T10:58:35.768Z,60.69
2017-07-15T10:59:36.714Z,59.44
2017-07-15T11:00:37.413Z,59.94
2017-07-15T11:01:38.112Z,60.42
2017-07-15T11:02:38.804Z,59.66
2017-07-15T11:03:39.508Z,59.37
2017-07-15T11:04:40.454Z,56.87
2017-07-15T11:05:41.160Z,56.48
2017-07-15T11:06:41.865Z,57.06
2017-07-15T11:07:42.565Z,57.73
2017-07-15T11:08:43.260Z,57.37
2017-07-15T11:09:43.952Z,57.06
2017-07-15T11:10:44.645Z,57.54
2017-07-15T11:11:45.340Z,56.20
2017-07-15T11:12:46.036Z,55.13
2017-07-15T11:13:46.741Z,56.38
2017-07-15T11:14:47.705Z,55.62
2017-07-15T11:15:48.408Z,54.65
2017-07-15T11:16:49.101Z,54.87
2017-07-15T11:17:49.800Z,54.78
2017-07-15T11:18:50.489Z,55.45
2017-07-15T11:19:51.429Z,55.48
2017-07-15T11:20:52.123Z,55.38
2017-07-15T11:21:52.821Z,55.45
2017-07-15T11:22:53.523Z,56.60
2017-07-15T11:23:54.218Z,57.47
2017-07-15T11:24:55.166Z,57.18
2017-07-15T11:25:55.862Z,55.90
2017-07-15T11:26:56.557Z,56.80
2017-07-15T11:27:57.256Z,57.86
2017-07-15T11:28:57.953Z,57.47
2017-07-15T11:29:58.909Z,58.15
2017-07-15T11:30:59.614Z,58.44
2017-07-15T11:32:00.310Z,58.44
2017-07-15T11:33:01.005Z,57.76
2017-07-15T11:34:01.704Z,57.86
2017-07-15T11:35:02.654Z,57.67
2017-07-15T11:36:03.363Z,56.90
2017-07-15T11:37:04.061Z,57.54
2017-07-15T11:38:04.767Z,57.28
2017-07-15T11:39:05.460Z,55.65
2017-07-15T11:40:06.408Z,55.83
2017-07-15T11:41:07.103Z,53.91
2017-07-15T11:42:07.792Z,54.58
2017-07-15T11:43:08.484Z,53.72
2017-07-15T11:44:09.182Z,52.73
2017-07-15T11:45:10.128Z,52.37
2017-07-15T11:46:10.831Z,52.56
2017-07-15T11:47:11.535Z,54.20
2017-07-15T11:48:12.247Z,56.99
2017-07-15T11:49:12.950Z,60.00
2017-07-15T11:50:13.888Z,56.82
2017-07-15T11:51:14.585Z,55.22
2017-07-15T11:52:15.282Z,54.74
2017-07-15T11:53:15.988Z,56.09
2017-07-15T11:54:16.685Z,56.37
2017-07-15T11:55:17.641Z,57.43
2017-07-15T11:56:18.331Z,55.92
2017-07-15T11:57:19.031Z,55.73
2017-07-15T11:58:19.737Z,53.80
2017-07-15T11:59:20.422Z,53.58
2017-07-15T12:00:21.374Z,52.13
2017-07-15T12:01:22.067Z,53.77
2017-07-15T12:02:22.770Z,53.39
2017-07-15T12:03:23.469Z,52.61
2017-07-15T12:04:24.162Z,53.03
2017-07-15T12:05:25.105Z,50.11
2017-07-15T12:06:25.807Z,48.86
2017-07-15T12:07:26.506Z,48.28
2017-07-15T12:08:27.200Z,49.02
2017-07-15T12:09:27.890Z,48.76
2017-07-15T12:10:28.842Z,48.66
2017-07-15T12:11:29.535Z,49.22
2017-07-15T12:12:30.229Z,50.81
2017-07-15T12:13:30.928Z,52.76
2017-07-15T12:14:31.629Z,49.77
2017-07-15T12:15:32.576Z,52.01
2017-07-15T12:16:33.279Z,50.86
2017-07-15T12:17:33.973Z,49.12
2017-07-15T12:18:34.668Z,48.13
2017-07-15T12:19:35.363Z,48.30
2017-07-15T12:20:36.312Z,47.34
2017-07-15T12:21:37.002Z,47.36
2017-07-15T12:22:37.705Z,46.69
2017-07-15T12:23:38.406Z,47.45
2017-07-15T12:24:39.107Z,47.75
2017-07-15T12:25:40.053Z,48.35
2017-07-15T12:26:40.750Z,48.03
2017-07-15T12:27:41.447Z,47.85
2017-07-15T12:28:42.146Z,48.90
2017-07-15T12:29:42.834Z,50.74
2017-07-15T12:30:43.783Z,49.48
2017-07-15T12:31:44.489Z,49.37
2017-07-15T12:32:45.185Z,50.04
2017-07-15T12:33:45.886Z,49.41
2017-07-15T12:34:46.593Z,49.51
2017-07-15T12:35:47.288Z,51.43
2017-07-15T12:36:47.995Z,49.58
2017-07-15T12:37:48.691Z,49.99
2017-07-15T12:38:49.392Z,50.42
2017-07-15T12:39:50.087Z,50.71
2017-07-15T12:40:51.040Z,50.83
2017-07-15T12:41:51.739Z,51.60
2017-07-15T12:42:52.433Z,51.31
2017-07-15T12:43:53.139Z,51.60
2017-07-15T12:44:53.833Z,52.47
2017-07-15T12:45:54.779Z,52.49
2017-07-15T12:46:55.477Z,52.95
2017-07-15T12:47:56.183Z,52.97
2017-07-15T12:48:56.879Z,53.27
2017-07-15T12:49:57.573Z,53.55
2017-07-15T12:50:58.516Z,53.53
2017-07-15T12:51:59.211Z,53.91
2017-07-15T12:52:59.906Z,53.23
2017-07-15T12:54:00.612Z,53.78
2017-07-15T12:55:01.310Z,54.49
2017-07-15T12:56:02.249Z,53.23
2017-07-15T12:57:02.940Z,53.43
2017-07-15T12:58:03.637Z,53.72
2017-07-15T12:59:04.341Z,52.97
2017-07-15T13:00:05.036Z,54.71
2017-07-15T13:01:05.981Z,52.81
2017-07-15T13:02:06.691Z,52.11